sensor_id;sensor_type;location;lat;lon;timestamp;P1;durP1;ratioP1;P2;durP2;ratioP2
56291;SDS011;54008;53.606;9.462;2022-11-15T00:01:25;58.28;;;27.45;;
56291;SDS011;54008;53.606;9.462;2022-11-15T00:03:51;54.42;;;26.83;;
56291;SDS011;54008;53.606;9.462;2022-11-15T00:06:16;60.38;;;28.20;;
56291;SDS011;54008;53.606;9.462;2022-11-15T00:08:42;56.53;;;27.65;;
56291;SDS011;54008;53.606;9.462;2022-11-15T00:11:08;59.25;;;29.15;;
56291;SDS011;54008;53.606;9.462;2022-11-15T00:13:35;60.67;;;27.30;;
56291;SDS011;54008;53.606;9.462;2022-11-15T00:16:01;61.03;;;28.63;;
56291;SDS011;54008;53.606;9.462;2022-11-15T00:18:30;59.92;;;29.92;;
56291;SDS011;54008;53.606;9.462;2022-11-15T00:20:56;61.13;;;28.00;;
56291;SDS011;54008;53.606;9.462;2022-11-15T00:23:27;61.47;;;28.83;;
56291;SDS011;54008;53.606;9.462;2022-11-15T00:25:58;61.13;;;29.52;;
56291;SDS011;54008;53.606;9.462;2022-11-15T00:28:25;59.83;;;28.50;;
56291;SDS011;54008;53.606;9.462;2022-11-15T00:30:50;60.60;;;28.35;;
56291;SDS011;54008;53.606;9.462;2022-11-15T00:33:16;61.85;;;28.60;;
56291;SDS011;54008;53.606;9.462;2022-11-15T00:35:41;61.75;;;27.98;;
56291;SDS011;54008;53.606;9.462;2022-11-15T00:38:06;55.20;;;27.50;;
56291;SDS011;54008;53.606;9.462;2022-11-15T00:40:32;58.33;;;26.98;;
56291;SDS011;54008;53.606;9.462;2022-11-15T00:42:57;54.50;;;26.45;;
56291;SDS011;54008;53.606;9.462;2022-11-15T00:45:23;55.10;;;26.92;;
56291;SDS011;54008;53.606;9.462;2022-11-15T00:47:49;57.03;;;26.38;;
56291;SDS011;54008;53.606;9.462;2022-11-15T00:50:14;57.00;;;26.15;;
56291;SDS011;54008;53.606;9.462;2022-11-15T00:52:40;57.70;;;27.15;;
56291;SDS011;54008;53.606;9.462;2022-11-15T00:55:05;52.38;;;27.38;;
56291;SDS011;54008;53.606;9.462;2022-11-15T00:57:31;49.72;;;25.27;;
56291;SDS011;54008;53.606;9.462;2022-11-15T00:59:56;51.60;;;26.13;;
56291;SDS011;54008;53.606;9.462;2022-11-15T01:02:21;53.28;;;25.85;;
56291;SDS011;54008;53.606;9.462;2022-11-15T01:04:47;51.33;;;25.17;;
56291;SDS011;54008;53.606;9.462;2022-11-15T01:07:12;47.28;;;25.05;;
56291;SDS011;54008;53.606;9.462;2022-11-15T01:09:37;52.13;;;25.40;;
56291;SDS011;54008;53.606;9.462;2022-11-15T01:12:03;49.42;;;25.35;;
56291;SDS011;54008;53.606;9.462;2022-11-15T01:14:29;47.85;;;25.63;;
56291;SDS011;54008;53.606;9.462;2022-11-15T01:16:54;48.38;;;24.35;;
56291;SDS011;54008;53.606;9.462;2022-11-15T01:19:19;44.95;;;23.85;;
56291;SDS011;54008;53.606;9.462;2022-11-15T01:21:45;49.28;;;24.73;;
56291;SDS011;54008;53.606;9.462;2022-11-15T01:24:13;46.42;;;23.92;;
56291;SDS011;54008;53.606;9.462;2022-11-15T01:26:38;44.67;;;23.73;;
56291;SDS011;54008;53.606;9.462;2022-11-15T01:29:04;43.63;;;23.10;;
56291;SDS011;54008;53.606;9.462;2022-11-15T01:31:29;47.63;;;23.98;;
56291;SDS011;54008;53.606;9.462;2022-11-15T01:33:54;49.13;;;23.60;;
56291;SDS011;54008;53.606;9.462;2022-11-15T01:36:20;48.35;;;24.17;;
56291;SDS011;54008;53.606;9.462;2022-11-15T01:38:47;45.92;;;23.95;;
56291;SDS011;54008;53.606;9.462;2022-11-15T01:41:18;44.63;;;23.63;;
56291;SDS011;54008;53.606;9.462;2022-11-15T01:43:49;45.20;;;23.42;;
56291;SDS011;54008;53.606;9.462;2022-11-15T01:48:50;50.20;;;24.30;;
56291;SDS011;54008;53.606;9.462;2022-11-15T01:51:17;52.25;;;24.10;;
56291;SDS011;54008;53.606;9.462;2022-11-15T01:53:45;44.92;;;22.42;;
56291;SDS011;54008;53.606;9.462;2022-11-15T01:56:16;47.33;;;23.70;;
56291;SDS011;54008;53.606;9.462;2022-11-15T02:01:10;44.00;;;21.35;;
56291;SDS011;54008;53.606;9.462;2022-11-15T02:03:42;42.10;;;21.52;;
56291;SDS011;54008;53.606;9.462;2022-11-15T02:06:14;42.80;;;20.77;;
56291;SDS011;54008;53.606;9.462;2022-11-15T02:08:39;41.42;;;21.75;;
56291;SDS011;54008;53.606;9.462;2022-11-15T02:11:08;45.03;;;22.77;;
56291;SDS011;54008;53.606;9.462;2022-11-15T02:13:34;42.33;;;21.50;;
56291;SDS011;54008;53.606;9.462;2022-11-15T02:21:43;44.10;;;21.02;;
56291;SDS011;54008;53.606;9.462;2022-11-15T02:30:20;40.17;;;19.83;;
56291;SDS011;54008;53.606;9.462;2022-11-15T02:35:37;46.17;;;20.55;;
56291;SDS011;54008;53.606;9.462;2022-11-15T02:41:11;40.38;;;19.13;;
56291;SDS011;54008;53.606;9.462;2022-11-15T02:43:42;37.38;;;18.90;;
56291;SDS011;54008;53.606;9.462;2022-11-15T02:46:31;39.72;;;20.98;;
56291;SDS011;54008;53.606;9.462;2022-11-15T02:49:21;42.17;;;20.52;;
56291;SDS011;54008;53.606;9.462;2022-11-15T02:51:47;41.15;;;21.17;;
56291;SDS011;54008;53.606;9.462;2022-11-15T02:54:22;37.40;;;19.63;;
56291;SDS011;54008;53.606;9.462;2022-11-15T02:56:50;35.20;;;18.45;;
56291;SDS011;54008;53.606;9.462;2022-11-15T02:59:38;40.10;;;20.60;;
56291;SDS011;54008;53.606;9.462;2022-11-15T03:05:09;38.35;;;19.08;;
56291;SDS011;54008;53.606;9.462;2022-11-15T03:07:54;39.08;;;20.23;;
56291;SDS011;54008;53.606;9.462;2022-11-15T03:10:46;38.38;;;19.00;;
56291;SDS011;54008;53.606;9.462;2022-11-15T03:18:47;39.53;;;19.08;;
56291;SDS011;54008;53.606;9.462;2022-11-15T03:21:20;36.00;;;18.38;;
56291;SDS011;54008;53.606;9.462;2022-11-15T03:23:47;36.90;;;19.05;;
56291;SDS011;54008;53.606;9.462;2022-11-15T03:26:15;38.90;;;18.85;;
56291;SDS011;54008;53.606;9.462;2022-11-15T03:28:49;39.65;;;19.85;;
56291;SDS011;54008;53.606;9.462;2022-11-15T03:31:18;36.95;;;19.85;;
56291;SDS011;54008;53.606;9.462;2022-11-15T03:34:05;34.88;;;19.00;;
56291;SDS011;54008;53.606;9.462;2022-11-15T03:36:36;34.58;;;18.77;;
56291;SDS011;54008;53.606;9.462;2022-11-15T03:39:04;39.20;;;19.55;;
56291;SDS011;54008;53.606;9.462;2022-11-15T03:41:35;38.30;;;18.42;;
56291;SDS011;54008;53.606;9.462;2022-11-15T03:47:03;38.08;;;19.38;;
56291;SDS011;54008;53.606;9.462;2022-11-15T03:49:35;34.13;;;18.00;;
56291;SDS011;54008;53.606;9.462;2022-11-15T03:52:03;34.58;;;18.17;;
56291;SDS011;54008;53.606;9.462;2022-11-15T03:54:30;35.40;;;18.65;;
56291;SDS011;54008;53.606;9.462;2022-11-15T03:56:55;36.03;;;18.50;;
56291;SDS011;54008;53.606;9.462;2022-11-15T03:59:21;35.67;;;17.98;;
56291;SDS011;54008;53.606;9.462;2022-11-15T04:01:47;42.40;;;19.83;;
56291;SDS011;54008;53.606;9.462;2022-11-15T04:04:12;37.25;;;17.98;;
56291;SDS011;54008;53.606;9.462;2022-11-15T04:06:37;40.65;;;19.20;;
56291;SDS011;54008;53.606;9.462;2022-11-15T04:09:03;39.95;;;20.33;;
56291;SDS011;54008;53.606;9.462;2022-11-15T04:11:28;39.83;;;18.90;;
56291;SDS011;54008;53.606;9.462;2022-11-15T04:13:53;39.03;;;20.58;;
56291;SDS011;54008;53.606;9.462;2022-11-15T04:16:19;43.88;;;19.15;;
56291;SDS011;54008;53.606;9.462;2022-11-15T04:18:44;43.17;;;20.55;;
56291;SDS011;54008;53.606;9.462;2022-11-15T04:21:09;39.80;;;19.90;;
56291;SDS011;54008;53.606;9.462;2022-11-15T04:23:53;38.88;;;19.33;;
56291;SDS011;54008;53.606;9.462;2022-11-15T04:26:37;39.35;;;20.70;;
56291;SDS011;54008;53.606;9.462;2022-11-15T04:29:03;35.83;;;18.55;;
56291;SDS011;54008;53.606;9.462;2022-11-15T04:31:47;39.88;;;19.67;;
56291;SDS011;54008;53.606;9.462;2022-11-15T04:34:12;36.65;;;19.98;;
56291;SDS011;54008;53.606;9.462;2022-11-15T04:36:37;36.38;;;19.85;;
56291;SDS011;54008;53.606;9.462;2022-11-15T04:39:21;37.38;;;19.05;;
56291;SDS011;54008;53.606;9.462;2022-11-15T04:41:46;34.78;;;18.48;;
56291;SDS011;54008;53.606;9.462;2022-11-15T04:44:11;32.63;;;17.55;;
56291;SDS011;54008;53.606;9.462;2022-11-15T04:46:37;31.98;;;17.85;;
56291;SDS011;54008;53.606;9.462;2022-11-15T04:49:02;37.15;;;19.27;;
56291;SDS011;54008;53.606;9.462;2022-11-15T04:51:27;37.95;;;19.98;;
56291;SDS011;54008;53.606;9.462;2022-11-15T04:53:52;34.60;;;19.35;;
56291;SDS011;54008;53.606;9.462;2022-11-15T04:56:18;33.75;;;18.45;;
56291;SDS011;54008;53.606;9.462;2022-11-15T04:58:43;35.60;;;17.60;;
56291;SDS011;54008;53.606;9.462;2022-11-15T05:01:12;33.65;;;18.20;;
56291;SDS011;54008;53.606;9.462;2022-11-15T05:03:39;36.72;;;18.85;;
56291;SDS011;54008;53.606;9.462;2022-11-15T05:06:23;32.25;;;17.83;;
56291;SDS011;54008;53.606;9.462;2022-11-15T05:08:49;35.17;;;17.65;;
56291;SDS011;54008;53.606;9.462;2022-11-15T05:11:14;34.10;;;17.30;;
56291;SDS011;54008;53.606;9.462;2022-11-15T05:13:39;35.78;;;19.27;;
56291;SDS011;54008;53.606;9.462;2022-11-15T05:16:04;36.15;;;17.90;;
56291;SDS011;54008;53.606;9.462;2022-11-15T05:18:30;35.83;;;18.70;;
56291;SDS011;54008;53.606;9.462;2022-11-15T05:20:55;33.97;;;18.55;;
56291;SDS011;54008;53.606;9.462;2022-11-15T05:23:20;30.63;;;17.75;;
56291;SDS011;54008;53.606;9.462;2022-11-15T05:25:46;35.05;;;17.92;;
56291;SDS011;54008;53.606;9.462;2022-11-15T05:28:11;34.17;;;17.55;;
56291;SDS011;54008;53.606;9.462;2022-11-15T05:30:37;40.33;;;18.88;;
56291;SDS011;54008;53.606;9.462;2022-11-15T05:33:02;35.75;;;18.48;;
56291;SDS011;54008;53.606;9.462;2022-11-15T05:35:32;34.10;;;17.10;;
56291;SDS011;54008;53.606;9.462;2022-11-15T05:38:06;30.83;;;17.35;;
56291;SDS011;54008;53.606;9.462;2022-11-15T05:40:32;37.05;;;19.35;;
56291;SDS011;54008;53.606;9.462;2022-11-15T05:42:58;35.47;;;18.13;;
56291;SDS011;54008;53.606;9.462;2022-11-15T05:45:28;36.03;;;17.53;;
56291;SDS011;54008;53.606;9.462;2022-11-15T05:47:54;32.45;;;17.73;;
56291;SDS011;54008;53.606;9.462;2022-11-15T05:50:20;33.75;;;17.92;;
56291;SDS011;54008;53.606;9.462;2022-11-15T05:52:46;34.75;;;17.80;;
56291;SDS011;54008;53.606;9.462;2022-11-15T05:55:12;36.20;;;17.90;;
56291;SDS011;54008;53.606;9.462;2022-11-15T05:57:37;35.80;;;19.35;;
56291;SDS011;54008;53.606;9.462;2022-11-15T06:00:03;35.10;;;18.15;;
56291;SDS011;54008;53.606;9.462;2022-11-15T06:02:29;38.47;;;18.83;;
56291;SDS011;54008;53.606;9.462;2022-11-15T06:04:54;35.65;;;18.00;;
56291;SDS011;54008;53.606;9.462;2022-11-15T06:07:19;31.75;;;17.42;;
56291;SDS011;54008;53.606;9.462;2022-11-15T06:09:45;38.05;;;19.08;;
56291;SDS011;54008;53.606;9.462;2022-11-15T06:12:10;37.00;;;19.60;;
56291;SDS011;54008;53.606;9.462;2022-11-15T06:14:35;36.70;;;19.40;;
56291;SDS011;54008;53.606;9.462;2022-11-15T06:17:00;34.20;;;17.95;;
56291;SDS011;54008;53.606;9.462;2022-11-15T06:19:26;35.55;;;18.70;;
56291;SDS011;54008;53.606;9.462;2022-11-15T06:21:52;38.13;;;19.73;;
56291;SDS011;54008;53.606;9.462;2022-11-15T06:24:17;34.47;;;17.35;;
56291;SDS011;54008;53.606;9.462;2022-11-15T06:26:42;35.33;;;17.42;;
56291;SDS011;54008;53.606;9.462;2022-11-15T06:29:07;35.10;;;18.52;;
56291;SDS011;54008;53.606;9.462;2022-11-15T06:31:33;38.60;;;19.10;;
56291;SDS011;54008;53.606;9.462;2022-11-15T06:33:59;37.10;;;18.67;;
56291;SDS011;54008;53.606;9.462;2022-11-15T06:36:24;40.28;;;19.88;;
56291;SDS011;54008;53.606;9.462;2022-11-15T06:38:50;35.53;;;18.35;;
56291;SDS011;54008;53.606;9.462;2022-11-15T06:41:15;40.38;;;19.33;;
56291;SDS011;54008;53.606;9.462;2022-11-15T06:43:41;36.67;;;19.35;;
56291;SDS011;54008;53.606;9.462;2022-11-15T06:46:07;37.00;;;19.02;;
56291;SDS011;54008;53.606;9.462;2022-11-15T06:48:33;39.90;;;19.80;;
56291;SDS011;54008;53.606;9.462;2022-11-15T06:50:59;39.65;;;19.83;;
56291;SDS011;54008;53.606;9.462;2022-11-15T06:53:25;33.13;;;18.38;;
56291;SDS011;54008;53.606;9.462;2022-11-15T06:55:51;39.17;;;19.60;;
56291;SDS011;54008;53.606;9.462;2022-11-15T06:58:16;34.83;;;18.58;;
56291;SDS011;54008;53.606;9.462;2022-11-15T07:00:42;35.45;;;19.38;;
56291;SDS011;54008;53.606;9.462;2022-11-15T07:03:08;36.03;;;18.70;;
56291;SDS011;54008;53.606;9.462;2022-11-15T07:05:34;37.53;;;19.42;;
56291;SDS011;54008;53.606;9.462;2022-11-15T07:08:00;36.30;;;18.75;;
56291;SDS011;54008;53.606;9.462;2022-11-15T07:10:25;33.85;;;18.90;;
56291;SDS011;54008;53.606;9.462;2022-11-15T07:12:52;36.22;;;19.83;;
56291;SDS011;54008;53.606;9.462;2022-11-15T07:15:19;35.42;;;18.00;;
56291;SDS011;54008;53.606;9.462;2022-11-15T07:17:45;37.58;;;20.23;;
56291;SDS011;54008;53.606;9.462;2022-11-15T07:20:11;39.67;;;19.58;;
56291;SDS011;54008;53.606;9.462;2022-11-15T07:22:38;39.10;;;21.17;;
56291;SDS011;54008;53.606;9.462;2022-11-15T07:25:03;39.35;;;19.88;;
56291;SDS011;54008;53.606;9.462;2022-11-15T07:27:29;33.42;;;18.58;;
56291;SDS011;54008;53.606;9.462;2022-11-15T07:29:54;35.90;;;18.48;;
56291;SDS011;54008;53.606;9.462;2022-11-15T07:32:19;38.25;;;19.60;;
56291;SDS011;54008;53.606;9.462;2022-11-15T07:34:45;34.50;;;17.70;;
56291;SDS011;54008;53.606;9.462;2022-11-15T07:37:11;40.20;;;18.88;;
56291;SDS011;54008;53.606;9.462;2022-11-15T07:39:36;40.47;;;19.42;;
56291;SDS011;54008;53.606;9.462;2022-11-15T07:42:02;42.55;;;20.55;;
56291;SDS011;54008;53.606;9.462;2022-11-15T07:44:46;33.95;;;18.65;;
56291;SDS011;54008;53.606;9.462;2022-11-15T07:47:12;34.75;;;18.27;;
56291;SDS011;54008;53.606;9.462;2022-11-15T07:49:37;34.28;;;19.35;;
56291;SDS011;54008;53.606;9.462;2022-11-15T07:52:02;35.33;;;18.80;;
56291;SDS011;54008;53.606;9.462;2022-11-15T07:54:28;34.40;;;19.23;;
56291;SDS011;54008;53.606;9.462;2022-11-15T07:56:53;39.67;;;20.65;;
56291;SDS011;54008;53.606;9.462;2022-11-15T07:59:18;41.70;;;19.38;;
56291;SDS011;54008;53.606;9.462;2022-11-15T08:01:44;37.38;;;19.20;;
56291;SDS011;54008;53.606;9.462;2022-11-15T08:04:10;44.35;;;19.83;;
56291;SDS011;54008;53.606;9.462;2022-11-15T08:06:36;36.95;;;20.02;;
56291;SDS011;54008;53.606;9.462;2022-11-15T08:09:01;36.72;;;19.20;;
56291;SDS011;54008;53.606;9.462;2022-11-15T08:11:26;34.28;;;18.25;;
56291;SDS011;54008;53.606;9.462;2022-11-15T08:13:51;35.58;;;18.52;;
56291;SDS011;54008;53.606;9.462;2022-11-15T08:16:17;38.22;;;20.48;;
56291;SDS011;54008;53.606;9.462;2022-11-15T08:18:42;40.63;;;19.15;;
56291;SDS011;54008;53.606;9.462;2022-11-15T08:21:08;37.90;;;18.88;;
56291;SDS011;54008;53.606;9.462;2022-11-15T08:23:34;32.67;;;18.15;;
56291;SDS011;54008;53.606;9.462;2022-11-15T08:26:00;34.78;;;18.27;;
56291;SDS011;54008;53.606;9.462;2022-11-15T08:28:27;35.55;;;19.33;;
56291;SDS011;54008;53.606;9.462;2022-11-15T08:30:53;32.95;;;17.40;;
56291;SDS011;54008;53.606;9.462;2022-11-15T08:33:18;34.63;;;17.60;;
56291;SDS011;54008;53.606;9.462;2022-11-15T08:35:43;32.83;;;17.98;;
56291;SDS011;54008;53.606;9.462;2022-11-15T08:38:09;30.83;;;17.58;;
56291;SDS011;54008;53.606;9.462;2022-11-15T08:40:35;32.50;;;17.23;;
56291;SDS011;54008;53.606;9.462;2022-11-15T08:43:01;35.25;;;18.83;;
56291;SDS011;54008;53.606;9.462;2022-11-15T08:45:27;34.65;;;17.80;;
56291;SDS011;54008;53.606;9.462;2022-11-15T08:47:53;33.88;;;18.98;;
56291;SDS011;54008;53.606;9.462;2022-11-15T08:50:19;33.85;;;18.85;;
56291;SDS011;54008;53.606;9.462;2022-11-15T08:52:44;31.45;;;18.38;;
56291;SDS011;54008;53.606;9.462;2022-11-15T08:55:09;30.67;;;17.73;;
56291;SDS011;54008;53.606;9.462;2022-11-15T08:57:35;32.38;;;18.70;;
56291;SDS011;54008;53.606;9.462;2022-11-15T09:00:00;36.30;;;19.45;;
56291;SDS011;54008;53.606;9.462;2022-11-15T09:02:25;28.98;;;17.25;;
56291;SDS011;54008;53.606;9.462;2022-11-15T09:04:51;32.00;;;17.65;;
56291;SDS011;54008;53.606;9.462;2022-11-15T09:07:16;34.88;;;18.58;;
56291;SDS011;54008;53.606;9.462;2022-11-15T09:09:41;31.42;;;18.15;;
56291;SDS011;54008;53.606;9.462;2022-11-15T09:12:07;29.58;;;17.60;;
56291;SDS011;54008;53.606;9.462;2022-11-15T09:14:32;33.17;;;19.25;;
56291;SDS011;54008;53.606;9.462;2022-11-15T09:16:58;31.83;;;17.48;;
56291;SDS011;54008;53.606;9.462;2022-11-15T09:19:24;30.90;;;18.35;;
56291;SDS011;54008;53.606;9.462;2022-11-15T09:21:49;30.60;;;17.77;;
56291;SDS011;54008;53.606;9.462;2022-11-15T09:24:14;31.00;;;17.45;;
56291;SDS011;54008;53.606;9.462;2022-11-15T09:26:40;27.42;;;17.13;;
56291;SDS011;54008;53.606;9.462;2022-11-15T09:29:06;32.15;;;16.70;;
56291;SDS011;54008;53.606;9.462;2022-11-15T09:31:31;27.15;;;17.00;;
56291;SDS011;54008;53.606;9.462;2022-11-15T09:33:57;31.50;;;17.23;;
56291;SDS011;54008;53.606;9.462;2022-11-15T09:36:22;26.55;;;16.83;;
56291;SDS011;54008;53.606;9.462;2022-11-15T09:38:47;26.98;;;16.05;;
56291;SDS011;54008;53.606;9.462;2022-11-15T09:44:00;26.20;;;16.50;;
56291;SDS011;54008;53.606;9.462;2022-11-15T09:48:56;33.63;;;16.10;;
56291;SDS011;54008;53.606;9.462;2022-11-15T09:51:29;26.50;;;16.23;;
56291;SDS011;54008;53.606;9.462;2022-11-15T09:53:59;30.25;;;17.15;;
56291;SDS011;54008;53.606;9.462;2022-11-15T09:56:32;39.40;;;16.83;;
56291;SDS011;54008;53.606;9.462;2022-11-15T10:01:41;31.83;;;17.77;;
56291;SDS011;54008;53.606;9.462;2022-11-15T10:04:16;29.58;;;17.30;;
56291;SDS011;54008;53.606;9.462;2022-11-15T10:06:43;31.08;;;16.48;;
56291;SDS011;54008;53.606;9.462;2022-11-15T10:09:22;27.10;;;16.23;;
56291;SDS011;54008;53.606;9.462;2022-11-15T10:11:50;34.08;;;18.27;;
56291;SDS011;54008;53.606;9.462;2022-11-15T10:14:33;28.92;;;17.60;;
56291;SDS011;54008;53.606;9.462;2022-11-15T10:20:02;27.92;;;17.67;;
56291;SDS011;54008;53.606;9.462;2022-11-15T10:22:48;36.05;;;17.60;;
56291;SDS011;54008;53.606;9.462;2022-11-15T10:25:34;36.88;;;18.25;;
56291;SDS011;54008;53.606;9.462;2022-11-15T10:30:30;26.20;;;15.80;;
56291;SDS011;54008;53.606;9.462;2022-11-15T10:33:09;27.80;;;16.05;;
56291;SDS011;54008;53.606;9.462;2022-11-15T10:35:36;27.38;;;15.38;;
56291;SDS011;54008;53.606;9.462;2022-11-15T10:38:06;32.15;;;16.20;;
56291;SDS011;54008;53.606;9.462;2022-11-15T10:40:33;23.60;;;14.95;;
56291;SDS011;54008;53.606;9.462;2022-11-15T10:43:12;27.65;;;15.32;;
56291;SDS011;54008;53.606;9.462;2022-11-15T10:45:41;25.35;;;14.60;;
56291;SDS011;54008;53.606;9.462;2022-11-15T10:50:39;28.10;;;15.90;;
56291;SDS011;54008;53.606;9.462;2022-11-15T10:55:46;30.30;;;16.58;;
56291;SDS011;54008;53.606;9.462;2022-11-15T10:58:21;30.60;;;15.98;;
56291;SDS011;54008;53.606;9.462;2022-11-15T11:00:47;27.48;;;16.55;;
56291;SDS011;54008;53.606;9.462;2022-11-15T11:03:29;31.90;;;16.20;;
56291;SDS011;54008;53.606;9.462;2022-11-15T11:06:07;25.27;;;15.75;;
56291;SDS011;54008;53.606;9.462;2022-11-15T11:08:41;26.55;;;14.73;;
56291;SDS011;54008;53.606;9.462;2022-11-15T11:11:19;28.13;;;16.00;;
56291;SDS011;54008;53.606;9.462;2022-11-15T11:13:44;27.60;;;15.50;;
56291;SDS011;54008;53.606;9.462;2022-11-15T11:18:56;25.48;;;14.18;;
56291;SDS011;54008;53.606;9.462;2022-11-15T11:27:47;23.60;;;14.63;;
56291;SDS011;54008;53.606;9.462;2022-11-15T11:33:33;25.33;;;14.80;;
56291;SDS011;54008;53.606;9.462;2022-11-15T11:38:50;25.05;;;14.57;;
56291;SDS011;54008;53.606;9.462;2022-11-15T11:47:20;23.00;;;13.38;;
56291;SDS011;54008;53.606;9.462;2022-11-15T11:49:50;23.95;;;13.98;;
56291;SDS011;54008;53.606;9.462;2022-11-15T11:52:19;30.25;;;14.15;;
56291;SDS011;54008;53.606;9.462;2022-11-15T11:54:58;25.42;;;14.68;;
56291;SDS011;54008;53.606;9.462;2022-11-15T12:00:21;21.52;;;12.25;;
56291;SDS011;54008;53.606;9.462;2022-11-15T12:03:01;28.02;;;13.45;;
56291;SDS011;54008;53.606;9.462;2022-11-15T12:05:35;19.70;;;12.73;;
56291;SDS011;54008;53.606;9.462;2022-11-15T12:08:15;25.30;;;14.15;;
56291;SDS011;54008;53.606;9.462;2022-11-15T12:10:57;19.20;;;12.35;;
56291;SDS011;54008;53.606;9.462;2022-11-15T12:13:29;22.85;;;13.55;;
56291;SDS011;54008;53.606;9.462;2022-11-15T12:16:01;19.23;;;12.75;;
56291;SDS011;54008;53.606;9.462;2022-11-15T12:18:32;17.55;;;11.45;;
56291;SDS011;54008;53.606;9.462;2022-11-15T12:21:02;21.15;;;12.65;;
56291;SDS011;54008;53.606;9.462;2022-11-15T12:23:35;21.92;;;13.52;;
56291;SDS011;54008;53.606;9.462;2022-11-15T12:26:46;19.67;;;12.45;;
56291;SDS011;54008;53.606;9.462;2022-11-15T12:29:19;20.73;;;13.15;;
56291;SDS011;54008;53.606;9.462;2022-11-15T12:31:51;20.92;;;13.18;;
56291;SDS011;54008;53.606;9.462;2022-11-15T12:36:47;22.52;;;13.60;;
56291;SDS011;54008;53.606;9.462;2022-11-15T12:39:14;22.60;;;12.75;;
56291;SDS011;54008;53.606;9.462;2022-11-15T12:41:44;24.33;;;13.68;;
56291;SDS011;54008;53.606;9.462;2022-11-15T12:47:04;21.45;;;12.38;;
56291;SDS011;54008;53.606;9.462;2022-11-15T12:49:47;21.25;;;12.75;;
56291;SDS011;54008;53.606;9.462;2022-11-15T12:52:13;18.88;;;12.57;;
56291;SDS011;54008;53.606;9.462;2022-11-15T13:02:22;22.15;;;12.90;;
56291;SDS011;54008;53.606;9.462;2022-11-15T13:04:49;24.02;;;13.20;;
56291;SDS011;54008;53.606;9.462;2022-11-15T13:10:00;23.67;;;12.50;;
56291;SDS011;54008;53.606;9.462;2022-11-15T13:17:40;19.43;;;12.07;;
56291;SDS011;54008;53.606;9.462;2022-11-15T13:28:01;18.40;;;11.82;;
56291;SDS011;54008;53.606;9.462;2022-11-15T13:30:35;18.30;;;11.05;;
56291;SDS011;54008;53.606;9.462;2022-11-15T13:33:09;18.40;;;10.40;;
56291;SDS011;54008;53.606;9.462;2022-11-15T13:35:40;15.48;;;10.13;;
56291;SDS011;54008;53.606;9.462;2022-11-15T13:38:11;17.02;;;10.48;;
56291;SDS011;54008;53.606;9.462;2022-11-15T13:40:43;16.92;;;10.48;;
56291;SDS011;54008;53.606;9.462;2022-11-15T13:48:37;18.15;;;10.88;;
56291;SDS011;54008;53.606;9.462;2022-11-15T13:51:03;16.30;;;9.65;;
56291;SDS011;54008;53.606;9.462;2022-11-15T13:53:33;18.15;;;9.10;;
56291;SDS011;54008;53.606;9.462;2022-11-15T13:56:03;14.77;;;10.00;;
56291;SDS011;54008;53.606;9.462;2022-11-15T13:58:29;15.15;;;9.35;;
56291;SDS011;54008;53.606;9.462;2022-11-15T14:00:59;15.32;;;9.55;;
56291;SDS011;54008;53.606;9.462;2022-11-15T14:03:27;14.43;;;9.20;;
56291;SDS011;54008;53.606;9.462;2022-11-15T14:08:40;13.18;;;9.18;;
56291;SDS011;54008;53.606;9.462;2022-11-15T14:16:53;15.30;;;9.35;;
56291;SDS011;54008;53.606;9.462;2022-11-15T14:24:41;20.70;;;11.18;;
56291;SDS011;54008;53.606;9.462;2022-11-15T14:29:53;17.50;;;11.48;;
56291;SDS011;54008;53.606;9.462;2022-11-15T14:32:20;17.42;;;10.10;;
56291;SDS011;54008;53.606;9.462;2022-11-15T14:34:57;15.90;;;10.20;;
56291;SDS011;54008;53.606;9.462;2022-11-15T14:37:26;18.42;;;10.40;;
56291;SDS011;54008;53.606;9.462;2022-11-15T14:40:00;18.42;;;11.07;;
56291;SDS011;54008;53.606;9.462;2022-11-15T14:42:26;16.75;;;11.35;;
56291;SDS011;54008;53.606;9.462;2022-11-15T14:44:52;16.35;;;10.80;;
56291;SDS011;54008;53.606;9.462;2022-11-15T14:47:17;20.25;;;11.40;;
56291;SDS011;54008;53.606;9.462;2022-11-15T14:49:44;16.88;;;10.80;;
56291;SDS011;54008;53.606;9.462;2022-11-15T14:54:50;20.65;;;11.35;;
56291;SDS011;54008;53.606;9.462;2022-11-15T14:57:15;18.45;;;10.65;;
56291;SDS011;54008;53.606;9.462;2022-11-15T14:59:40;24.38;;;11.63;;
56291;SDS011;54008;53.606;9.462;2022-11-15T15:02:24;20.55;;;11.55;;
56291;SDS011;54008;53.606;9.462;2022-11-15T15:04:51;22.25;;;11.90;;
56291;SDS011;54008;53.606;9.462;2022-11-15T15:07:17;18.60;;;11.30;;
56291;SDS011;54008;53.606;9.462;2022-11-15T15:09:43;18.95;;;11.43;;
56291;SDS011;54008;53.606;9.462;2022-11-15T15:12:19;17.77;;;11.00;;
56291;SDS011;54008;53.606;9.462;2022-11-15T15:14:47;20.13;;;11.98;;
56291;SDS011;54008;53.606;9.462;2022-11-15T15:17:13;18.55;;;11.65;;
56291;SDS011;54008;53.606;9.462;2022-11-15T15:19:39;21.00;;;12.38;;
56291;SDS011;54008;53.606;9.462;2022-11-15T15:22:04;22.35;;;12.93;;
56291;SDS011;54008;53.606;9.462;2022-11-15T15:24:30;23.17;;;12.27;;
56291;SDS011;54008;53.606;9.462;2022-11-15T15:26:56;22.65;;;12.60;;
56291;SDS011;54008;53.606;9.462;2022-11-15T15:29:21;23.15;;;12.90;;
56291;SDS011;54008;53.606;9.462;2022-11-15T15:31:47;23.95;;;13.10;;
56291;SDS011;54008;53.606;9.462;2022-11-15T15:34:12;23.02;;;12.43;;
56291;SDS011;54008;53.606;9.462;2022-11-15T15:36:37;18.90;;;12.07;;
56291;SDS011;54008;53.606;9.462;2022-11-15T15:39:03;20.00;;;12.35;;
56291;SDS011;54008;53.606;9.462;2022-11-15T15:41:28;22.40;;;13.57;;
56291;SDS011;54008;53.606;9.462;2022-11-15T15:43:53;21.00;;;13.27;;
56291;SDS011;54008;53.606;9.462;2022-11-15T15:46:18;26.90;;;13.50;;
56291;SDS011;54008;53.606;9.462;2022-11-15T15:48:44;22.80;;;13.50;;
56291;SDS011;54008;53.606;9.462;2022-11-15T15:51:10;39.67;;;14.98;;
56291;SDS011;54008;53.606;9.462;2022-11-15T15:53:36;23.92;;;12.75;;
56291;SDS011;54008;53.606;9.462;2022-11-15T15:56:02;22.42;;;13.25;;
56291;SDS011;54008;53.606;9.462;2022-11-15T15:58:28;22.80;;;12.95;;
56291;SDS011;54008;53.606;9.462;2022-11-15T16:00:53;17.85;;;11.80;;
56291;SDS011;54008;53.606;9.462;2022-11-15T16:03:19;24.48;;;13.18;;
56291;SDS011;54008;53.606;9.462;2022-11-15T16:05:44;22.30;;;12.88;;
56291;SDS011;54008;53.606;9.462;2022-11-15T16:08:17;27.65;;;14.07;;
56291;SDS011;54008;53.606;9.462;2022-11-15T16:10:43;21.42;;;13.15;;
56291;SDS011;54008;53.606;9.462;2022-11-15T16:13:09;23.45;;;12.82;;
56291;SDS011;54008;53.606;9.462;2022-11-15T16:15:34;21.95;;;13.65;;
56291;SDS011;54008;53.606;9.462;2022-11-15T16:18:00;23.08;;;12.95;;
56291;SDS011;54008;53.606;9.462;2022-11-15T16:20:29;18.52;;;12.02;;
56291;SDS011;54008;53.606;9.462;2022-11-15T16:23:00;26.23;;;13.55;;
56291;SDS011;54008;53.606;9.462;2022-11-15T16:25:27;20.40;;;13.60;;
56291;SDS011;54008;53.606;9.462;2022-11-15T16:27:53;22.10;;;12.60;;
56291;SDS011;54008;53.606;9.462;2022-11-15T16:30:19;22.15;;;12.82;;
56291;SDS011;54008;53.606;9.462;2022-11-15T16:32:46;19.65;;;12.57;;
56291;SDS011;54008;53.606;9.462;2022-11-15T16:35:12;24.15;;;14.15;;
56291;SDS011;54008;53.606;9.462;2022-11-15T16:37:39;25.40;;;13.90;;